sensor_id;sensor_type;location;lat;lon;timestamp;pressure;altitude;pressure_sealevel;temperature;humidity
43503;BME280;29098;48.184;16.298;2023-01-29T00:00:35;100370.25;;;0.28;100.00
43503;BME280;29098;48.184;16.298;2023-01-29T00:03:01;100371.38;;;0.38;100.00
43503;BME280;29098;48.184;16.298;2023-01-29T00:05:26;100371.38;;;0.38;99.56
43503;BME280;29098;48.184;16.298;2023-01-29T00:07:52;100377.22;;;0.42;99.71
43503;BME280;29098;48.184;16.298;2023-01-29T00:10:17;100377.59;;;0.36;99.26
43503;BME280;29098;48.184;16.298;2023-01-29T00:12:42;100381.13;;;0.35;99.22
43503;BME280;29098;48.184;16.298;2023-01-29T00:15:08;100376.66;;;0.22;99.81
43503;BME280;29098;48.184;16.298;2023-01-29T00:17:33;100383.16;;;0.30;99.42
43503;BME280;29098;48.184;16.298;2023-01-29T00:19:59;100387.59;;;0.28;99.50
43503;BME280;29098;48.184;16.298;2023-01-29T00:22:24;100385.91;;;0.26;99.46
43503;BME280;29098;48.184;16.298;2023-01-29T00:24:49;100380.44;;;0.17;98.44
43503;BME280;29098;48.184;16.298;2023-01-29T00:27:15;100389.88;;;0.18;99.17
43503;BME280;29098;48.184;16.298;2023-01-29T00:29:40;100393.56;;;0.13;97.71
43503;BME280;29098;48.184;16.298;2023-01-29T00:32:06;100386.38;;;0.19;98.90
43503;BME280;29098;48.184;16.298;2023-01-29T00:34:31;100391.63;;;0.17;98.95
43503;BME280;29098;48.184;16.298;2023-01-29T00:36:56;100387.38;;;0.16;99.36
43503;BME280;29098;48.184;16.298;2023-01-29T00:39:29;100376.34;;;0.12;98.82
43503;BME280;29098;48.184;16.298;2023-01-29T00:42:03;100385.16;;;0.24;98.31
43503;BME280;29098;48.184;16.298;2023-01-29T00:44:47;100381.75;;;0.24;98.17
43503;BME280;29098;48.184;16.298;2023-01-29T00:47:21;100375.78;;;0.22;98.54
43503;BME280;29098;48.184;16.298;2023-01-29T00:49:57;100375.13;;;0.18;98.18
43503;BME280;29098;48.184;16.298;2023-01-29T00:52:23;100370.22;;;0.13;98.46
43503;BME280;29098;48.184;16.298;2023-01-29T00:54:48;100364.97;;;0.15;98.96
43503;BME280;29098;48.184;16.298;2023-01-29T00:57:14;100366.63;;;0.16;98.79
43503;BME280;29098;48.184;16.298;2023-01-29T00:59:39;100372.00;;;0.13;98.20
43503;BME280;29098;48.184;16.298;2023-01-29T01:02:04;100377.34;;;0.10;97.22
43503;BME280;29098;48.184;16.298;2023-01-29T01:04:48;100379.38;;;0.05;98.41
43503;BME280;29098;48.184;16.298;2023-01-29T01:07:13;100378.47;;;0.06;98.81
43503;BME280;29098;48.184;16.298;2023-01-29T01:09:39;100379.47;;;0.03;98.87
43503;BME280;29098;48.184;16.298;2023-01-29T01:12:23;100383.06;;;0.01;98.46
43503;BME280;29098;48.184;16.298;2023-01-29T01:14:48;100383.47;;;0.09;97.76
43503;BME280;29098;48.184;16.298;2023-01-29T01:17:13;100386.25;;;0.06;99.36
43503;BME280;29098;48.184;16.298;2023-01-29T01:19:39;100388.25;;;0.01;98.71
43503;BME280;29098;48.184;16.298;2023-01-29T01:22:04;100398.31;;;0.21;98.35
43503;BME280;29098;48.184;16.298;2023-01-29T01:24:30;100385.50;;;0.18;97.35
43503;BME280;29098;48.184;16.298;2023-01-29T01:26:55;100386.56;;;0.16;97.16
43503;BME280;29098;48.184;16.298;2023-01-29T01:29:20;100386.03;;;0.09;97.44
43503;BME280;29098;48.184;16.298;2023-01-29T01:31:46;100383.06;;;0.01;97.61
43503;BME280;29098;48.184;16.298;2023-01-29T01:34:11;100386.66;;;-0.02;97.96
43503;BME280;29098;48.184;16.298;2023-01-29T01:36:37;100378.63;;;0.03;97.83
43503;BME280;29098;48.184;16.298;2023-01-29T01:39:02;100385.72;;;-0.01;97.43
43503;BME280;29098;48.184;16.298;2023-01-29T01:41:28;100377.13;;;-0.02;96.90
43503;BME280;29098;48.184;16.298;2023-01-29T01:43:56;100378.88;;;-0.02;96.78
43503;BME280;29098;48.184;16.298;2023-01-29T01:46:32;100379.81;;;-0.03;96.63
43503;BME280;29098;48.184;16.298;2023-01-29T01:49:02;100378.53;;;0.04;96.63
43503;BME280;29098;48.184;16.298;2023-01-29T01:51:29;100388.84;;;0.06;95.47
43503;BME280;29098;48.184;16.298;2023-01-29T01:54:00;100376.88;;;0.03;94.33
43503;BME280;29098;48.184;16.298;2023-01-29T01:56:29;100380.06;;;-0.08;94.92
43503;BME280;29098;48.184;16.298;2023-01-29T01:59:02;100381.75;;;-0.07;95.17
43503;BME280;29098;48.184;16.298;2023-01-29T02:01:29;100386.91;;;-0.07;95.59
43503;BME280;29098;48.184;16.298;2023-01-29T02:04:00;100378.41;;;-0.09;94.89
43503;BME280;29098;48.184;16.298;2023-01-29T02:06:45;100392.44;;;-0.13;96.37
43503;BME280;29098;48.184;16.298;2023-01-29T02:09:38;100398.56;;;-0.14;95.24
43503;BME280;29098;48.184;16.298;2023-01-29T02:12:10;100393.03;;;-0.08;94.75
43503;BME280;29098;48.184;16.298;2023-01-29T02:14:36;100393.63;;;-0.03;94.42
43503;BME280;29098;48.184;16.298;2023-01-29T02:17:07;100393.88;;;-0.07;95.09
43503;BME280;29098;48.184;16.298;2023-01-29T02:32:59;100402.75;;;-0.11;95.26
43503;BME280;29098;48.184;16.298;2023-01-29T02:38:02;100400.94;;;-0.25;95.05
43503;BME280;29098;48.184;16.298;2023-01-29T02:40:33;100400.47;;;-0.18;95.70
43503;BME280;29098;48.184;16.298;2023-01-29T02:43:06;100405.25;;;-0.10;95.05
43503;BME280;29098;48.184;16.298;2023-01-29T02:48:18;100400.09;;;-0.26;94.43
43503;BME280;29098;48.184;16.298;2023-01-29T02:55:55;100405.00;;;-0.21;93.09
43503;BME280;29098;48.184;16.298;2023-01-29T02:58:42;100408.13;;;-0.31;92.89
43503;BME280;29098;48.184;16.298;2023-01-29T03:01:12;100419.41;;;-0.32;94.27
43503;BME280;29098;48.184;16.298;2023-01-29T03:03:41;100431.09;;;-0.24;93.86
43503;BME280;29098;48.184;16.298;2023-01-29T03:08:59;100424.00;;;-0.21;94.25
43503;BME280;29098;48.184;16.298;2023-01-29T03:11:26;100425.59;;;-0.18;93.20
43503;BME280;29098;48.184;16.298;2023-01-29T03:13:56;100424.25;;;-0.25;94.22
43503;BME280;29098;48.184;16.298;2023-01-29T03:16:25;100424.41;;;-0.29;93.34
43503;BME280;29098;48.184;16.298;2023-01-29T03:18:59;100431.09;;;-0.24;93.41
43503;BME280;29098;48.184;16.298;2023-01-29T03:24:32;100422.91;;;-0.33;93.00
43503;BME280;29098;48.184;16.298;2023-01-29T03:27:17;100425.59;;;-0.34;92.96
43503;BME280;29098;48.184;16.298;2023-01-29T03:30:03;100431.50;;;-0.32;92.70
43503;BME280;29098;48.184;16.298;2023-01-29T03:32:48;100446.06;;;-0.30;92.45
43503;BME280;29098;48.184;16.298;2023-01-29T03:35:17;100440.88;;;-0.30;91.44
43503;BME280;29098;48.184;16.298;2023-01-29T03:37:46;100433.78;;;-0.26;90.98
43503;BME280;29098;48.184;16.298;2023-01-29T03:40:12;100430.25;;;-0.25;90.77
43503;BME280;29098;48.184;16.298;2023-01-29T03:45:19;100432.03;;;-0.25;89.35
43503;BME280;29098;48.184;16.298;2023-01-29T03:53:03;100408.84;;;-0.29;90.79
43503;BME280;29098;48.184;16.298;2023-01-29T03:58:15;100400.34;;;-0.47;89.59
43503;BME280;29098;48.184;16.298;2023-01-29T04:00:46;100394.50;;;-0.50;90.81
43503;BME280;29098;48.184;16.298;2023-01-29T04:03:19;100398.41;;;-0.43;90.59
43503;BME280;29098;48.184;16.298;2023-01-29T04:08:16;100393.41;;;-0.30;90.88
43503;BME280;29098;48.184;16.298;2023-01-29T04:10:44;100383.94;;;-0.31;91.22
43503;BME280;29098;48.184;16.298;2023-01-29T04:13:12;100385.38;;;-0.25;89.48
43503;BME280;29098;48.184;16.298;2023-01-29T04:15:41;100384.97;;;-0.50;89.21
43503;BME280;29098;48.184;16.298;2023-01-29T04:18:07;100374.94;;;-0.40;89.69
43503;BME280;29098;48.184;16.298;2023-01-29T04:20:34;100386.47;;;-0.62;87.88
43503;BME280;29098;48.184;16.298;2023-01-29T04:22:59;100376.28;;;-0.49;87.95
43503;BME280;29098;48.184;16.298;2023-01-29T04:25:26;100379.88;;;-0.51;88.58
43503;BME280;29098;48.184;16.298;2023-01-29T04:28:06;100378.63;;;-0.44;88.25
43503;BME280;29098;48.184;16.298;2023-01-29T04:35:47;100383.22;;;-0.49;87.77
43503;BME280;29098;48.184;16.298;2023-01-29T04:38:39;100390.34;;;-0.53;86.14
43503;BME280;29098;48.184;16.298;2023-01-29T04:41:13;100393.94;;;-0.56;85.97
43503;BME280;29098;48.184;16.298;2023-01-29T04:46:17;100402.53;;;-0.71;88.05
43503;BME280;29098;48.184;16.298;2023-01-29T04:51:16;100403.44;;;-0.72;88.41
43503;BME280;29098;48.184;16.298;2023-01-29T04:59:03;100414.56;;;-0.70;88.02
43503;BME280;29098;48.184;16.298;2023-01-29T05:01:30;100423.13;;;-0.70;88.23
43503;BME280;29098;48.184;16.298;2023-01-29T05:03:57;100426.16;;;-0.77;87.25
43503;BME280;29098;48.184;16.298;2023-01-29T05:06:24;100426.75;;;-0.72;88.03
43503;BME280;29098;48.184;16.298;2023-01-29T05:08:50;100425.31;;;-0.78;87.38
43503;BME280;29098;48.184;16.298;2023-01-29T05:11:15;100428.75;;;-0.77;87.73
43503;BME280;29098;48.184;16.298;2023-01-29T05:13:42;100429.16;;;-0.69;86.06
43503;BME280;29098;48.184;16.298;2023-01-29T05:16:08;100421.41;;;-0.69;85.76
43503;BME280;29098;48.184;16.298;2023-01-29T05:18:37;100412.47;;;-0.79;85.24
43503;BME280;29098;48.184;16.298;2023-01-29T05:21:03;100412.53;;;-0.81;85.05
43503;BME280;29098;48.184;16.298;2023-01-29T05:23:30;100414.63;;;-0.88;83.99
43503;BME280;29098;48.184;16.298;2023-01-29T05:25:55;100418.38;;;-0.77;83.58
43503;BME280;29098;48.184;16.298;2023-01-29T05:28:21;100415.50;;;-0.89;84.13
43503;BME280;29098;48.184;16.298;2023-01-29T05:30:47;100399.97;;;-0.89;81.61
43503;BME280;29098;48.184;16.298;2023-01-29T05:33:16;100410.75;;;-0.97;83.31
43503;BME280;29098;48.184;16.298;2023-01-29T05:35:42;100407.25;;;-0.95;81.72
43503;BME280;29098;48.184;16.298;2023-01-29T05:38:07;100406.09;;;-0.90;82.62
43503;BME280;29098;48.184;16.298;2023-01-29T05:40:33;100398.31;;;-0.90;83.02
43503;BME280;29098;48.184;16.298;2023-01-29T05:42:58;100404.16;;;-0.86;82.27
43503;BME280;29098;48.184;16.298;2023-01-29T05:45:23;100404.91;;;-1.00;80.74
43503;BME280;29098;48.184;16.298;2023-01-29T05:47:49;100416.31;;;-1.04;81.93
43503;BME280;29098;48.184;16.298;2023-01-29T05:50:14;100409.34;;;-1.02;82.92
43503;BME280;29098;48.184;16.298;2023-01-29T05:52:39;100408.91;;;-1.11;82.26
43503;BME280;29098;48.184;16.298;2023-01-29T05:55:05;100412.47;;;-1.13;82.10
43503;BME280;29098;48.184;16.298;2023-01-29T05:57:31;100414.91;;;-1.10;83.09
43503;BME280;29098;48.184;16.298;2023-01-29T05:59:56;100406.56;;;-1.15;81.88
43503;BME280;29098;48.184;16.298;2023-01-29T06:02:21;100400.13;;;-1.08;83.14
43503;BME280;29098;48.184;16.298;2023-01-29T06:04:47;100403.63;;;-1.09;82.76
43503;BME280;29098;48.184;16.298;2023-01-29T06:07:12;100403.78;;;-1.12;81.55
43503;BME280;29098;48.184;16.298;2023-01-29T06:09:37;100404.22;;;-1.04;81.75
43503;BME280;29098;48.184;16.298;2023-01-29T06:12:03;100399.47;;;-1.12;82.35
43503;BME280;29098;48.184;16.298;2023-01-29T06:14:30;100400.09;;;-1.24;82.06
43503;BME280;29098;48.184;16.298;2023-01-29T06:16:55;100399.59;;;-1.15;82.46
43503;BME280;29098;48.184;16.298;2023-01-29T06:19:21;100404.66;;;-1.12;80.97
43503;BME280;29098;48.184;16.298;2023-01-29T06:21:46;100399.47;;;-1.29;80.83
43503;BME280;29098;48.184;16.298;2023-01-29T06:24:11;100398.94;;;-1.18;80.97
43503;BME280;29098;48.184;16.298;2023-01-29T06:26:37;100402.44;;;-1.19;80.47
43503;BME280;29098;48.184;16.298;2023-01-29T06:29:02;100408.84;;;-1.27;81.36
43503;BME280;29098;48.184;16.298;2023-01-29T06:31:28;100406.25;;;-1.27;81.94
43503;BME280;29098;48.184;16.298;2023-01-29T06:33:53;100413.63;;;-1.19;82.33
43503;BME280;29098;48.184;16.298;2023-01-29T06:36:18;100406.31;;;-1.28;81.96
43503;BME280;29098;48.184;16.298;2023-01-29T06:38:44;100414.25;;;-1.31;83.37
43503;BME280;29098;48.184;16.298;2023-01-29T06:41:10;100414.94;;;-1.28;81.88
43503;BME280;29098;48.184;16.298;2023-01-29T06:43:36;100415.75;;;-1.27;81.71
43503;BME280;29098;48.184;16.298;2023-01-29T06:46:01;100411.94;;;-1.20;81.18
43503;BME280;29098;48.184;16.298;2023-01-29T06:48:27;100420.78;;;-1.24;81.27
43503;BME280;29098;48.184;16.298;2023-01-29T06:50:52;100416.22;;;-1.19;81.37
43503;BME280;29098;48.184;16.298;2023-01-29T06:53:19;100423.44;;;-1.26;82.30
43503;BME280;29098;48.184;16.298;2023-01-29T06:55:49;100420.63;;;-1.21;81.18
43503;BME280;29098;48.184;16.298;2023-01-29T06:58:15;100413.47;;;-1.16;79.43
43503;BME280;29098;48.184;16.298;2023-01-29T07:00:40;100406.00;;;-1.22;79.44
43503;BME280;29098;48.184;16.298;2023-01-29T07:03:05;100409.16;;;-1.33;80.98
43503;BME280;29098;48.184;16.298;2023-01-29T07:05:30;100403.59;;;-1.25;79.40
43503;BME280;29098;48.184;16.298;2023-01-29T07:07:56;100408.03;;;-1.45;79.55
43503;BME280;29098;48.184;16.298;2023-01-29T07:10:21;100402.78;;;-1.43;81.42
43503;BME280;29098;48.184;16.298;2023-01-29T07:12:47;100399.59;;;-1.31;80.11
43503;BME280;29098;48.184;16.298;2023-01-29T07:15:12;100390.56;;;-1.57;81.02
43503;BME280;29098;48.184;16.298;2023-01-29T07:17:38;100396.94;;;-1.47;81.32
43503;BME280;29098;48.184;16.298;2023-01-29T07:20:03;100390.66;;;-1.43;82.64
43503;BME280;29098;48.184;16.298;2023-01-29T07:22:30;100394.19;;;-1.44;82.42
43503;BME280;29098;48.184;16.298;2023-01-29T07:24:55;100392.50;;;-1.45;81.64
43503;BME280;29098;48.184;16.298;2023-01-29T07:27:20;100394.88;;;-1.58;81.39
43503;BME280;29098;48.184;16.298;2023-01-29T07:29:45;100395.16;;;-1.46;81.65
43503;BME280;29098;48.184;16.298;2023-01-29T07:32:11;100402.41;;;-1.53;81.27
43503;BME280;29098;48.184;16.298;2023-01-29T07:34:36;100393.97;;;-1.57;81.27
43503;BME280;29098;48.184;16.298;2023-01-29T07:37:01;100391.31;;;-1.55;82.19
43503;BME280;29098;48.184;16.298;2023-01-29T07:39:27;100400.28;;;-1.45;83.00
43503;BME280;29098;48.184;16.298;2023-01-29T07:41:52;100407.78;;;-1.40;82.28
43503;BME280;29098;48.184;16.298;2023-01-29T07:44:17;100401.56;;;-1.36;82.88
43503;BME280;29098;48.184;16.298;2023-01-29T07:46:43;100401.50;;;-1.34;81.62
43503;BME280;29098;48.184;16.298;2023-01-29T07:49:08;100395.63;;;-1.38;81.14
43503;BME280;29098;48.184;16.298;2023-01-29T07:51:33;100394.72;;;-1.37;81.29
43503;BME280;29098;48.184;16.298;2023-01-29T07:53:59;100398.56;;;-1.28;81.15
43503;BME280;29098;48.184;16.298;2023-01-29T07:56:24;100399.97;;;-1.39;80.47
43503;BME280;29098;48.184;16.298;2023-01-29T07:58:49;100411.75;;;-1.33;80.76
43503;BME280;29098;48.184;16.298;2023-01-29T08:01:14;100414.72;;;-1.41;81.53
43503;BME280;29098;48.184;16.298;2023-01-29T08:03:40;100409.38;;;-1.38;81.50
43503;BME280;29098;48.184;16.298;2023-01-29T08:06:05;100407.84;;;-1.24;81.54
43503;BME280;29098;48.184;16.298;2023-01-29T08:08:31;100409.97;;;-1.15;81.57
43503;BME280;29098;48.184;16.298;2023-01-29T08:10:56;100424.00;;;-1.36;80.68
43503;BME280;29098;48.184;16.298;2023-01-29T08:13:24;100423.31;;;-1.40;81.17
43503;BME280;29098;48.184;16.298;2023-01-29T08:15:49;100419.00;;;-1.40;82.42
43503;BME280;29098;48.184;16.298;2023-01-29T08:18:14;100417.00;;;-1.34;81.50
43503;BME280;29098;48.184;16.298;2023-01-29T08:20:40;100411.84;;;-1.34;82.51
43503;BME280;29098;48.184;16.298;2023-01-29T08:23:06;100420.56;;;-1.19;82.46
43503;BME280;29098;48.184;16.298;2023-01-29T08:25:32;100416.59;;;-1.27;80.73
43503;BME280;29098;48.184;16.298;2023-01-29T08:27:57;100411.13;;;-1.20;82.21
43503;BME280;29098;48.184;16.298;2023-01-29T08:30:24;100407.25;;;-1.29;80.42
43503;BME280;29098;48.184;16.298;2023-01-29T08:32:50;100419.69;;;-1.02;80.58
43503;BME280;29098;48.184;16.298;2023-01-29T08:35:15;100429.66;;;-1.12;79.03
43503;BME280;29098;48.184;16.298;2023-01-29T08:37:40;100440.53;;;-1.05;79.40
43503;BME280;29098;48.184;16.298;2023-01-29T08:40:06;100433.31;;;-1.16;79.91
43503;BME280;29098;48.184;16.298;2023-01-29T08:42:33;100437.94;;;-1.05;80.47
43503;BME280;29098;48.184;16.298;2023-01-29T08:44:58;100446.69;;;-1.08;80.71
43503;BME280;29098;48.184;16.298;2023-01-29T08:47:24;100450.53;;;-0.81;84.54
43503;BME280;29098;48.184;16.298;2023-01-29T08:49:49;100444.09;;;-0.74;80.74
43503;BME280;29098;48.184;16.298;2023-01-29T08:52:14;100457.97;;;-0.75;79.62
43503;BME280;29098;48.184;16.298;2023-01-29T08:54:40;100454.81;;;-0.80;78.57
43503;BME280;29098;48.184;16.298;2023-01-29T08:57:05;100453.84;;;-0.95;78.46
43503;BME280;29098;48.184;16.298;2023-01-29T08:59:31;100457.97;;;-0.91;78.92
43503;BME280;29098;48.184;16.298;2023-01-29T09:01:56;100465.78;;;-0.93;78.16
43503;BME280;29098;48.184;16.298;2023-01-29T09:04:21;100454.44;;;-0.90;77.92
43503;BME280;29098;48.184;16.298;2023-01-29T09:06:47;100457.34;;;-0.97;78.37
43503;BME280;29098;48.184;16.298;2023-01-29T09:09:12;100459.22;;;-0.83;77.78
43503;BME280;29098;48.184;16.298;2023-01-29T09:11:38;100462.66;;;-0.82;77.62
43503;BME280;29098;48.184;16.298;2023-01-29T09:14:04;100460.19;;;-0.85;77.64
43503;BME280;29098;48.184;16.298;2023-01-29T09:16:29;100454.81;;;-0.80;77.23
43503;BME280;29098;48.184;16.298;2023-01-29T09:18:55;100461.59;;;-0.95;76.97
43503;BME280;29098;48.184;16.298;2023-01-29T09:21:20;100458.47;;;-0.85;78.85
43503;BME280;29098;48.184;16.298;2023-01-29T09:23:45;100460.41;;;-0.72;77.49
43503;BME280;29098;48.184;16.298;2023-01-29T09:26:11;100456.13;;;-0.73;77.89
43503;BME280;29098;48.184;16.298;2023-01-29T09:28:36;100454.13;;;-0.68;77.76
43503;BME280;29098;48.184;16.298;2023-01-29T09:31:01;100453.91;;;-0.63;77.08
43503;BME280;29098;48.184;16.298;2023-01-29T09:33:27;100453.16;;;-0.65;76.68
43503;BME280;29098;48.184;16.298;2023-01-29T09:35:53;100454.88;;;-0.66;78.81
43503;BME280;29098;48.184;16.298;2023-01-29T09:38:18;100456.06;;;-0.72;77.59
43503;BME280;29098;48.184;16.298;2023-01-29T09:46:06;100451.25;;;-0.30;76.88
43503;BME280;29098;48.184;16.298;2023-01-29T09:48:39;100458.94;;;-0.28;76.61
43503;BME280;29098;48.184;16.298;2023-01-29T09:51:07;100467.78;;;-0.32;76.26
43503;BME280;29098;48.184;16.298;2023-01-29T09:53:39;100458.69;;;-0.23;76.46
43503;BME280;29098;48.184;16.298;2023-01-29T09:56:13;100467.53;;;-0.28;77.76
43503;BME280;29098;48.184;16.298;2023-01-29T09:58:41;100455.69;;;-0.32;77.39
43503;BME280;29098;48.184;16.298;2023-01-29T10:01:25;100458.34;;;-0.33;78.12
43503;BME280;29098;48.184;16.298;2023-01-29T10:11:48;100441.44;;;-0.08;77.95
43503;BME280;29098;48.184;16.298;2023-01-29T10:27:20;100447.16;;;0.60;77.21
43503;BME280;29098;48.184;16.298;2023-01-29T10:29:47;100439.75;;;0.68;76.72
43503;BME280;29098;48.184;16.298;2023-01-29T10:32:15;100422.78;;;0.62;75.96
43503;BME280;29098;48.184;16.298;2023-01-29T10:34:42;100421.16;;;0.45;75.83
43503;BME280;29098;48.184;16.298;2023-01-29T10:37:20;100415.19;;;0.74;76.19
43503;BME280;29098;48.184;16.298;2023-01-29T10:39:48;100423.50;;;0.64;73.55
43503;BME280;29098;48.184;16.298;2023-01-29T10:44:45;100411.38;;;0.79;72.73
43503;BME280;29098;48.184;16.298;2023-01-29T10:47:24;100408.69;;;0.95;72.70
43503;BME280;29098;48.184;16.298;2023-01-29T10:50:00;100401.56;;;1.14;74.47
43503;BME280;29098;48.184;16.298;2023-01-29T10:55:03;100407.66;;;1.27;72.50
43503;BME280;29098;48.184;16.298;2023-01-29T10:57:37;100400.50;;;1.31;71.86
43503;BME280;29098;48.184;16.298;2023-01-29T11:02:44;100405.94;;;1.41;72.05
43503;BME280;29098;48.184;16.298;2023-01-29T11:05:28;100405.69;;;1.31;72.01
43503;BME280;29098;48.184;16.298;2023-01-29T11:08:02;100410.25;;;1.27;72.78
43503;BME280;29098;48.184;16.298;2023-01-29T11:10:30;100395.44;;;1.15;72.19
43503;BME280;29098;48.184;16.298;2023-01-29T11:12:56;100407.84;;;1.09;71.89
43503;BME280;29098;48.184;16.298;2023-01-29T11:15:23;100400.06;;;1.09;71.68
43503;BME280;29098;48.184;16.298;2023-01-29T11:18:04;100407.84;;;0.95;70.98
43503;BME280;29098;48.184;16.298;2023-01-29T11:20:31;100400.34;;;1.05;71.19
43503;BME280;29098;48.184;16.298;2023-01-29T11:22:56;100378.34;;;1.11;72.10
43503;BME280;29098;48.184;16.298;2023-01-29T11:25:22;100372.47;;;1.36;71.74
43503;BME280;29098;48.184;16.298;2023-01-29T11:27:51;100370.13;;;1.46;69.78
43503;BME280;29098;48.184;16.298;2023-01-29T11:30:34;100349.81;;;1.66;71.35
43503;BME280;29098;48.184;16.298;2023-01-29T11:33:09;100351.25;;;1.97;70.95
43503;BME280;29098;48.184;16.298;2023-01-29T11:35:36;100346.81;;;2.12;69.58
43503;BME280;29098;48.184;16.298;2023-01-29T11:38:34;100338.88;;;1.88;67.97
43503;BME280;29098;48.184;16.298;2023-01-29T11:41:26;100332.41;;;1.81;68.33
43503;BME280;29098;48.184;16.298;2023-01-29T11:43:46;100319.41;;;1.81;69.57
43503;BME280;29098;48.184;16.298;2023-01-29T11:46:12;100316.75;;;2.08;70.44
43503;BME280;29098;48.184;16.298;2023-01-29T11:48:39;100310.63;;;2.35;69.34
43503;BME280;29098;48.184;16.298;2023-01-29T11:51:06;100317.78;;;2.57;68.97
43503;BME280;29098;48.184;16.298;2023-01-29T11:53:36;100309.41;;;2.91;66.84
43503;BME280;29098;48.184;16.298;2023-01-29T11:56:03;100309.59;;;3.01;67.09
43503;BME280;29098;48.184;16.298;2023-01-29T11:58:30;100298.09;;;3.04;66.11
43503;BME280;29098;48.184;16.298;2023-01-29T12:00:57;100294.19;;;2.85;65.62
43503;BME280;29098;48.184;16.298;2023-01-29T12:05:55;100262.41;;;3.17;66.03
43503;BME280;29098;48.184;16.298;2023-01-29T12:08:21;100264.97;;;3.30;65.03
43503;BME280;29098;48.184;16.298;2023-01-29T12:10:48;100257.56;;;3.48;64.25
43503;BME280;29098;48.184;16.298;2023-01-29T12:15:40;100246.69;;;3.54;65.03
43503;BME280;29098;48.184;16.298;2023-01-29T12:18:10;100241.75;;;3.63;63.92
43503;BME280;29098;48.184;16.298;2023-01-29T12:20:57;100239.19;;;3.74;63.77
43503;BME280;29098;48.184;16.298;2023-01-29T12:23:27;100233.41;;;3.93;65.47
43503;BME280;29098;48.184;16.298;2023-01-29T12:25:57;100225.78;;;3.90;61.75
43503;BME280;29098;48.184;16.298;2023-01-29T12:28:33;100227.06;;;3.73;63.56
43503;BME280;29098;48.184;16.298;2023-01-29T12:36:17;100221.50;;;3.31;63.33
43503;BME280;29098;48.184;16.298;2023-01-29T12:38:45;100220.56;;;3.32;64.65
43503;BME280;29098;48.184;16.298;2023-01-29T12:43:43;100217.94;;;3.32;65.17
43503;BME280;29098;48.184;16.298;2023-01-29T12:46:44;100209.84;;;3.48;64.89
43503;BME280;29098;48.184;16.298;2023-01-29T12:49:02;100214.38;;;3.33;64.06
43503;BME280;29098;48.184;16.298;2023-01-29T12:51:30;100207.59;;;2.94;64.99
43503;BME280;29098;48.184;16.298;2023-01-29T12:54:08;100211.69;;;2.61;66.13
43503;BME280;29098;48.184;16.298;2023-01-29T12:56:45;100208.97;;;2.63;66.96
43503;BME280;29098;48.184;16.298;2023-01-29T12:59:30;100212.13;;;2.42;66.72
43503;BME280;29098;48.184;16.298;2023-01-29T13:02:00;100199.56;;;2.36;67.51
43503;BME280;29098;48.184;16.298;2023-01-29T13:07:11;100192.72;;;2.22;68.39
43503;BME280;29098;48.184;16.298;2023-01-29T13:09:38;100194.41;;;2.10;69.26
43503;BME280;29098;48.184;16.298;2023-01-29T13:12:13;100184.00;;;2.10;69.19
43503;BME280;29098;48.184;16.298;2023-01-29T13:19:53;100180.06;;;2.41;68.04
43503;BME280;29098;48.184;16.298;2023-01-29T13:22:24;100172.25;;;2.41;68.18
43503;BME280;29098;48.184;16.298;2023-01-29T13:24:50;100167.66;;;2.45;68.74
43503;BME280;29098;48.184;16.298;2023-01-29T13:27:19;100171.78;;;2.60;68.38
43503;BME280;29098;48.184;16.298;2023-01-29T13:29:44;100180.25;;;2.51;68.47
43503;BME280;29098;48.184;16.298;2023-01-29T13:32:10;100173.78;;;2.57;68.40
43503;BME280;29098;48.184;16.298;2023-01-29T13:34:44;100173.34;;;2.87;67.88
43503;BME280;29098;48.184;16.298;2023-01-29T13:37:16;100172.75;;;2.84;67.22
43503;BME280;29098;48.184;16.298;2023-01-29T13:39:47;100175.19;;;2.98;66.95
43503;BME280;29098;48.184;16.298;2023-01-29T13:42:59;100172.34;;;3.01;67.38
43503;BME280;29098;48.184;16.298;2023-01-29T13:45:00;100169.28;;;3.08;66.56
43503;BME280;29098;48.184;16.298;2023-01-29T13:47:27;100162.72;;;3.26;66.31
43503;BME280;29098;48.184;16.298;2023-01-29T13:52:27;100158.09;;;3.19;66.87
43503;BME280;29098;48.184;16.298;2023-01-29T13:54:56;100160.38;;;3.35;66.46
43503;BME280;29098;48.184;16.298;2023-01-29T13:57:33;100170.94;;;3.09;66.07
43503;BME280;29098;48.184;16.298;2023-01-29T13:59:59;100161.75;;;3.16;64.77
43503;BME280;29098;48.184;16.298;2023-01-29T14:02:26;100167.25;;;3.00;66.02
43503;BME280;29098;48.184;16.298;2023-01-29T14:05:05;100164.22;;;2.82;67.02
43503;BME280;29098;48.184;16.298;2023-01-29T14:07:38;100169.78;;;2.64;66.85
43503;BME280;29098;48.184;16.298;2023-01-29T14:10:20;100175.75;;;2.66;67.45
43503;BME280;29098;48.184;16.298;2023-01-29T14:12:47;100162.94;;;2.63;66.71
43503;BME280;29098;48.184;16.298;2023-01-29T14:15:26;100167.34;;;2.12;68.75
43503;BME280;29098;48.184;16.298;2023-01-29T14:20:33;100166.09;;;2.05;68.73
43503;BME280;29098;48.184;16.298;2023-01-29T14:23:00;100170.47;;;2.04;70.40
43503;BME280;29098;48.184;16.298;2023-01-29T14:25:32;100165.81;;;1.97;70.62
43503;BME280;29098;48.184;16.298;2023-01-29T14:27:58;100158.84;;;1.84;70.15
43503;BME280;29098;48.184;16.298;2023-01-29T14:30:26;100151.75;;;1.86;70.06
43503;BME280;29098;48.184;16.298;2023-01-29T14:32:54;100158.13;;;1.82;70.73
43503;BME280;29098;48.184;16.298;2023-01-29T14:35:21;100150.09;;;1.85;70.98
43503;BME280;29098;48.184;16.298;2023-01-29T14:37:48;100159.66;;;1.85;70.24
43503;BME280;29098;48.184;16.298;2023-01-29T14:42:51;100160.78;;;1.94;70.51
43503;BME280;29098;48.184;16.298;2023-01-29T14:45:34;100160.91;;;1.79;71.52
43503;BME280;29098;48.184;16.298;2023-01-29T14:48:16;100167.97;;;1.64;71.23
43503;BME280;29098;48.184;16.298;2023-01-29T14:50:47;100167.13;;;1.63;71.44
43503;BME280;29098;48.184;16.298;2023-01-29T14:53:16;100154.88;;;1.66;71.29